ADDS METAR Data INFO
IDs: Format: Raw Decoded Include TAF

Data at: 0751 UTC 17 Oct 2017

KFRR 170735Z AUTO 00000KT 10SM CLR 03/02 A3029 RMK AO1
KFRR 170715Z AUTO 00000KT 10SM CLR 04/02 A3029 RMK AO1
KFRR 170655Z AUTO 10SM CLR 05/02 A3028 RMK AO1
KFRR 170635Z AUTO 00000KT 10SM CLR 03/02 A3028 RMK AO1
KFRR 170615Z AUTO 00000KT 10SM CLR 05/02 A3029 RMK AO1
KFRR 170555Z AUTO 10SM CLR 06/03 A3029 RMK AO1
KFRR 170535Z AUTO 10SM CLR 05/03 A3028 RMK AO1
KFRR 170515Z AUTO 10SM CLR 05/03 A3028 RMK AO1
KFRR 170455Z AUTO 00000KT 10SM CLR 07/03 A3028 RMK AO1
KFRR 170435Z AUTO 10SM CLR 08/03 A3028 RMK AO1
KFRR 170415Z AUTO 10SM CLR 07/03 A3028 RMK AO1
KFRR 170355Z AUTO 10SM CLR 07/03 A3028 RMK AO1
KFRR 170335Z AUTO 10SM CLR 07/03 A3028 RMK AO1
KFRR 170315Z AUTO 00000KT 10SM CLR 08/03 A3028 RMK AO1
KFRR 170255Z AUTO 00000KT 10SM CLR 10/03 A3027 RMK AO1
KFRR 170235Z AUTO 00000KT 10SM CLR 10/03 A3026 RMK AO1
KFRR 170215Z AUTO 10SM CLR 10/02 A3026 RMK AO1
KFRR 170155Z AUTO 10SM CLR 10/02 A3025 RMK AO1
KFRR 170135Z AUTO 10SM CLR 10/02 A3024 RMK AO1
KFRR 170115Z AUTO 10SM CLR 11/02 A3023 RMK AO1
KFRR 170055Z AUTO 10SM CLR 11/01 A3023 RMK AO1
KFRR 170035Z AUTO 10SM CLR 11/02 A3021 RMK AO1
KFRR 170015Z AUTO 10SM CLR 11/02 A3021 RMK AO1
KFRR 162355Z AUTO 26004KT 10SM CLR 12/01 A3020 RMK AO1
KFRR 162335Z AUTO 29004KT 10SM SCT075 12/02 A3019 RMK AO1
KFRR 162315Z AUTO 32003KT 10SM BKN075 12/01 A3019 RMK AO1
KFRR 162255Z AUTO 00000KT 10SM SCT075 13/01 A3018 RMK AO1
KFRR 162235Z AUTO 34004KT 10SM CLR 13/01 A3017 RMK AO1
KFRR 162215Z AUTO 33005KT 10SM CLR 14/01 A3016 RMK AO1
KFRR 162155Z AUTO 35007G14KT 10SM CLR 15/00 A3015 RMK AO1
KFRR 162135Z AUTO 31006G16KT 10SM CLR 15/01 A3014 RMK AO1
KFRR 162115Z AUTO 35012G16KT 10SM CLR 16/01 A3014 RMK AO1
KFRR 162055Z AUTO 32010G19KT 10SM SCT060 16/01 A3014 RMK AO1
KFRR 162035Z AUTO 31009G17KT 10SM SCT060 16/02 A3014 RMK AO1
KFRR 162015Z AUTO 33010G18KT 10SM CLR 16/02 A3014 RMK AO1
KFRR 161955Z AUTO 31008G16KT 10SM CLR 16/02 A3013 RMK AO1
KFRR 161935Z AUTO 31012G19KT 10SM CLR 16/02 A3013 RMK AO1
KFRR 161915Z AUTO 31011G20KT 10SM CLR 16/02 A3013 RMK AO1
KFRR 161855Z AUTO 30009G16KT 260V350 10SM SCT050 16/03 A3012 RMK AO1
KFRR 161835Z AUTO 31010G17KT 290V360 10SM SCT050 16/03 A3012 RMK AO1
KFRR 161815Z AUTO 30010G18KT 270V340 10SM SCT050 16/03 A3012 RMK AO1
KFRR 161755Z AUTO 30013G20KT 10SM CLR 16/04 A3012 RMK AO1
KFRR 161735Z AUTO 31013G19KT 10SM CLR 16/04 A3013 RMK AO1
KFRR 161715Z AUTO 31010G15KT 10SM CLR 16/04 A3013 RMK AO1
KFRR 161655Z AUTO 34008G22KT 10SM SCT047 15/04 A3014 RMK AO1
KFRR 161635Z AUTO 31009G19KT 270V350 10SM CLR 15/05 A3014 RMK AO1
KFRR 161615Z AUTO 33009G17KT 290V350 10SM SCT043 15/05 A3014 RMK AO1
KFRR 161555Z AUTO 32011G17KT 10SM BKN043 15/05 A3013 RMK AO1
KFRR 161535Z AUTO 32010G16KT 290V360 10SM CLR 15/05 A3013 RMK AO1
KFRR 161515Z AUTO 32009KT 280V350 10SM SCT050 14/06 A3013 RMK AO1
KFRR 161455Z AUTO 31006KT 10SM OVC048 13/06 A3012 RMK AO1
KFRR 161435Z AUTO 33009G15KT 280V360 10SM BKN050 BKN060 13/06 A3012 RMK AO1
KFRR 161415Z AUTO 32007KT 10SM BKN046 BKN060 13/07 A3011 RMK AO1
KFRR 161355Z AUTO 33006KT 10SM OVC046 13/07 A3011 RMK AO1
KFRR 161335Z AUTO 35007KT 10SM OVC044 13/07 A3011 RMK AO1
KFRR 161315Z AUTO 35007KT 10SM OVC047 13/07 A3011 RMK AO1
KFRR 161255Z AUTO 31005KT 10SM BKN047 BKN050 14/06 A3010 RMK AO1
KFRR 161235Z AUTO 28005KT 10SM SCT042 BKN050 14/07 A3008 RMK AO1
KFRR 161215Z AUTO 31007KT 10SM BKN043 OVC050 14/07 A3007 RMK AO1
KFRR 161155Z AUTO 32004KT 10SM OVC045 14/07 A3005 RMK AO1
KFRR 161135Z AUTO 29005KT 10SM OVC047 14/07 A3005 RMK AO1
KFRR 161115Z AUTO 31007KT 10SM OVC049 14/07 A3003 RMK AO1
KFRR 161055Z AUTO 31006KT 10SM BKN049 14/08 A3003 RMK AO1
KFRR 161035Z AUTO 31007KT 10SM CLR 15/08 A3003 RMK AO1
KFRR 161015Z AUTO 30004KT 10SM CLR 15/09 A3003 RMK AO1
KFRR 160955Z AUTO 30003KT 10SM CLR 15/09 A3002 RMK AO1
KFRR 160935Z AUTO 32004KT 10SM SCT110 15/10 A3000 RMK AO1
KFRR 160915Z AUTO 32004KT 10SM SCT100 SCT120 15/10 A3000 RMK AO1
KFRR 160855Z AUTO 00000KT 10SM SCT120 15/11 A2999 RMK AO1
KFRR 160835Z AUTO 29003KT 10SM SCT100 BKN120 15/11 A2999 RMK AO1
KFRR 160815Z AUTO 32005KT 10SM BKN120 15/11 A2998 RMK AO1
KFRR 160755Z AUTO 30009KT 10SM OVC120 15/11 A2999 RMK AO1
KFRR 160735Z AUTO 30007KT 10SM BKN080 OVC110 16/11 A2999 RMK AO1
KFRR 160715Z AUTO 00000KT 10SM OVC070 16/12 A2999 RMK AO1
KFRR 160655Z AUTO 28005KT 10SM SCT045 OVC070 16/12 A2999 RMK AO1
KFRR 160635Z AUTO 31006KT 10SM SCT022 BKN046 OVC085 16/13 A2998 RMK AO1
KFRR 160615Z AUTO 31004KT 10SM BKN019 BKN029 OVC070 16/15 A2997 RMK AO1
KFRR 160555Z AUTO 30004KT 10SM SCT016 BKN025 OVC085 17/16 A2997 RMK AO1 P0004
KFRR 160535Z AUTO 34005KT 7SM SCT011 BKN027 OVC060 17/17 A2996 RMK AO1 P0003
KFRR 160515Z AUTO 00000KT 10SM SCT035 SCT040 OVC060 18/17 A2995 RMK AO1 P0001
KFRR 160455Z AUTO 19003KT 10SM SCT035 SCT042 OVC050 18/17 A2995 RMK AO1
KFRR 160435Z AUTO 00000KT 10SM OVC050 18/17 A2994 RMK AO1
KFRR 160420Z AUTO 22003KT 10SM SCT037 OVC047 19/16 A2993 RMK AO1
KFRR 160355Z AUTO 29005KT 10SM BKN038 OVC044 19/17 A2993 RMK AO1
KFRR 160335Z AUTO 32003KT 10SM SCT033 BKN039 OVC050 19/17 A2992 RMK AO1
KFRR 160315Z AUTO 32008G24KT 290V350 5SM SCT033 SCT048 OVC060 21/17 A2992 RMK AO1
KFRR 160255Z AUTO 29004KT 10SM OVC060 23/17 A2989 RMK AO1
KFRR 160235Z AUTO 25004KT 10SM BKN060 OVC090 23/17 A2986 RMK AO1
KFRR 160215Z AUTO 24004KT 10SM SCT070 OVC090 23/17 A2985 RMK AO1
KFRR 160155Z AUTO 22005KT 10SM BKN070 23/17 A2985 RMK AO1
KFRR 160135Z AUTO 22004KT 10SM SCT070 SCT100 23/16 A2985 RMK AO1
KFRR 160115Z AUTO 23005KT 10SM BKN100 23/16 A2985 RMK AO1
KFRR 160055Z AUTO 20004KT 10SM SCT090 23/16 A2985 RMK AO1
KFRR 160035Z AUTO 21005KT 10SM SCT090 23/16 A2985 RMK AO1
KFRR 160015Z AUTO 21004KT 10SM CLR 23/16 A2985 RMK AO1
KFRR 152355Z AUTO 19003KT 10SM SCT085 22/17 A2985 RMK AO1
KFRR 152335Z AUTO 19003KT 10SM CLR 23/17 A2985 RMK AO1
KFRR 152315Z AUTO 19005KT 10SM CLR 23/17 A2985 RMK AO1
KFRR 152255Z AUTO 18005KT 10SM CLR 23/17 A2985 RMK AO1
KFRR 152235Z AUTO 19004KT 10SM CLR 24/18 A2985 RMK AO1
KFRR 152215Z AUTO 17005KT 10SM CLR 25/18 A2985 RMK AO1
KFRR 152155Z AUTO 18005KT 10SM SCT090 26/18 A2986 RMK AO1
KFRR 152135Z AUTO 17006KT 10SM SCT090 26/18 A2986 RMK AO1
KFRR 152115Z AUTO 16005KT 10SM CLR 27/18 A2986 RMK AO1
KFRR 152055Z AUTO 16005KT 10SM CLR 28/18 A2987 RMK AO1
KFRR 152035Z AUTO 17005KT 10SM CLR 28/17 A2987 RMK AO1
KFRR 152015Z AUTO 23005KT 10SM CLR 28/16 A2988 RMK AO1
KFRR 151955Z AUTO 22005KT 10SM CLR 29/16 A2988 RMK AO1